This is the latest recevied weather packets stored in our database for station/object IW2LSY-11. If no packets are shown the sender has not sent any weather packets the latest 10 day(s).
| Time | Temp. | Humidity | Pressure | Rain* | Wind** | Luminosity | Snow |
|---|---|---|---|---|---|---|---|
| 1777492215 | 14.44° C | 92% | 1018.9 hPa | - | - | 318 W/m² | - |
| 1777491605 | 15° C | 95% | 1018.8 hPa | - | - | 318 W/m² | - |
| 1777491006 | 15° C | 90% | 1018.6 hPa | - | - | 319 W/m² | - |
| 1777490406 | 14.44° C | 93% | 1018.5 hPa | - | - | 320 W/m² | - |
| 1777489807 | 15° C | 89% | 1018.4 hPa | - | - | 320 W/m² | - |
| 1777489207 | 15° C | 88% | 1018.3 hPa | - | - | 320 W/m² | - |
| 1777488608 | 15° C | 87% | 1018.2 hPa | - | - | 321 W/m² | - |
| 1777488008 | 15.56° C | 80% | 1018.1 hPa | - | - | 321 W/m² | - |
| 1777487408 | 15.56° C | 79% | 1018 hPa | - | - | 322 W/m² | - |
| 1777486808 | 15.56° C | 72% | 1017.6 hPa | - | - | 323 W/m² | - |
| 1777486208 | 15.56° C | 70% | 1017.5 hPa | - | - | 323 W/m² | - |
| 1777485609 | 16.67° C | 61% | 1017.4 hPa | - | - | 325 W/m² | - |
| 1777485009 | 16.67° C | 59% | 1017.2 hPa | - | - | 326 W/m² | - |
| 1777484409 | 16.67° C | 61% | 1017.1 hPa | - | - | 327 W/m² | - |
| 1777483810 | 16.67° C | 71% | 1017.1 hPa | - | - | 328 W/m² | - |
| 1777483210 | 17.22° C | 70% | 1017 hPa | - | - | 329 W/m² | - |
| 1777482611 | 17.22° C | 69% | 1017 hPa | - | - | 330 W/m² | - |
| 1777482012 | 17.78° C | 66% | 1016.9 hPa | - | - | 330 W/m² | - |
| 1777481412 | 18.33° C | 68% | 1016.9 hPa | - | - | 330 W/m² | - |
| 1777480812 | 17.78° C | 68% | 1016.8 hPa | - | - | 331 W/m² | - |
| 1777480213 | 17.78° C | 71% | 1016.8 hPa | - | - | 331 W/m² | - |
| 1777479614 | 17.22° C | 72% | 1016.9 hPa | - | - | 331 W/m² | - |
| 1777479014 | 17.78° C | 70% | 1016.9 hPa | - | - | 332 W/m² | - |
| 1777478415 | 17.78° C | 69% | 1017 hPa | - | - | 332 W/m² | - |
| 1777477805 | 17.78° C | 71% | 1017.1 hPa | - | - | 333 W/m² | - |
* Rain since midnight (hover to see other rain measurements)
** Current wind speed in m/s (hover to see current wind gust speed)